createdAt,value
2023-01-27T00:00:27.838Z,-1.72
2023-01-27T00:01:24.592Z,-1.73
2023-01-27T00:02:21.313Z,-1.76
2023-01-27T00:03:18.393Z,-1.75
2023-01-27T00:04:15.032Z,-2.35
2023-01-27T00:05:13.700Z,-1.70
2023-01-27T00:06:12.015Z,-1.69
2023-01-27T00:07:08.602Z,-1.94
2023-01-27T00:08:05.378Z,-1.74
2023-01-27T00:09:02.000Z,-1.73
2023-01-27T00:09:58.549Z,-1.77
2023-01-27T00:11:19.966Z,-1.72
2023-01-27T00:12:41.178Z,-1.64
2023-01-27T00:13:37.916Z,-1.74
2023-01-27T00:14:34.471Z,-1.69
2023-01-27T00:15:32.117Z,-1.69
2023-01-27T00:16:28.830Z,-1.66
2023-01-27T00:17:25.511Z,-1.72
2023-01-27T00:18:23.603Z,-1.92
2023-01-27T00:19:20.253Z,-1.63
2023-01-27T00:20:35.451Z,-1.64
2023-01-27T00:21:50.329Z,-1.76
2023-01-27T00:23:19.098Z,-1.81
2023-01-27T00:24:34.646Z,-1.68
2023-01-27T00:25:31.957Z,-1.73
2023-01-27T00:26:28.578Z,-1.72
2023-01-27T00:27:27.246Z,-1.65
2023-01-27T00:28:25.586Z,-1.67
2023-01-27T00:29:22.304Z,-1.78
2023-01-27T00:30:18.962Z,-1.75
2023-01-27T00:31:36.575Z,-1.58
2023-01-27T00:32:52.119Z,-1.72
2023-01-27T00:33:49.573Z,-1.79
2023-01-27T00:34:46.500Z,-1.88
2023-01-27T00:35:43.099Z,-1.88
2023-01-27T00:36:42.020Z,-1.68
2023-01-27T00:37:38.657Z,-1.91
2023-01-27T00:38:42.030Z,-1.78
2023-01-27T00:39:38.997Z,-1.85
2023-01-27T00:40:35.613Z,-1.72
2023-01-27T00:41:33.997Z,-1.75
2023-01-27T00:42:30.609Z,-1.74
2023-01-27T00:43:27.160Z,-1.74
2023-01-27T00:44:24.022Z,-1.84
2023-01-27T00:45:39.459Z,-1.79
2023-01-27T00:46:36.060Z,-1.67
2023-01-27T00:47:33.965Z,-1.72
2023-01-27T00:48:30.978Z,-1.77
2023-01-27T00:49:27.705Z,-1.83
2023-01-27T00:50:24.732Z,-1.69
2023-01-27T00:51:21.661Z,-1.65
2023-01-27T00:52:18.318Z,-1.76
2023-01-27T00:53:15.017Z,-1.68
2023-01-27T00:54:11.735Z,-1.71
2023-01-27T00:55:08.995Z,-1.74
2023-01-27T00:56:06.173Z,-1.74
2023-01-27T00:57:04.441Z,-1.65
2023-01-27T00:58:01.092Z,-1.62
2023-01-27T00:58:57.693Z,-1.49
2023-01-27T00:59:54.338Z,-1.52
2023-01-27T01:00:53.579Z,-1.71
2023-01-27T01:01:50.232Z,-1.52
2023-01-27T01:02:46.934Z,-1.38
2023-01-27T01:03:44.613Z,-1.50
2023-01-27T01:04:41.246Z,-1.64
2023-01-27T01:05:38.020Z,-1.67
2023-01-27T01:06:34.729Z,-1.55
2023-01-27T01:07:31.292Z,-1.60
2023-01-27T01:08:29.958Z,-1.68
2023-01-27T01:09:26.756Z,-1.53
2023-01-27T01:10:23.460Z,-1.55
2023-01-27T01:11:21.463Z,-1.51
2023-01-27T01:12:18.171Z,-1.44
2023-01-27T01:13:14.891Z,-1.44
2023-01-27T01:14:11.522Z,-1.49
2023-01-27T01:15:08.958Z,-1.64
2023-01-27T01:16:12.970Z,-1.49
2023-01-27T01:17:09.759Z,-1.41
2023-01-27T01:18:09.201Z,-1.21
2023-01-27T01:19:05.802Z,-1.50
2023-01-27T01:20:02.568Z,-1.44
2023-01-27T01:20:59.241Z,-1.49
2023-01-27T01:21:55.875Z,-1.55
2023-01-27T01:22:52.474Z,-1.44
2023-01-27T01:23:49.111Z,-1.28
2023-01-27T01:24:45.960Z,-1.20
2023-01-27T01:25:42.733Z,-1.32
2023-01-27T01:26:39.330Z,-1.28
2023-01-27T01:27:35.969Z,-1.28
2023-01-27T01:28:33.133Z,-1.23
2023-01-27T01:29:29.878Z,-1.38
2023-01-27T01:30:27.532Z,-1.16
2023-01-27T01:31:24.200Z,-1.20
2023-01-27T01:32:20.928Z,-1.80
2023-01-27T01:33:17.710Z,-1.59
2023-01-27T01:34:14.264Z,-1.33
2023-01-27T01:35:10.908Z,-1.24
2023-01-27T01:36:09.756Z,-1.27
2023-01-27T01:37:06.437Z,-1.40
2023-01-27T01:38:03.037Z,-1.34
2023-01-27T01:38:59.642Z,-1.50
2023-01-27T01:39:56.300Z,-1.41
2023-01-27T01:40:52.873Z,-1.41
2023-01-27T01:41:49.459Z,-1.45
2023-01-27T01:43:08.787Z,-1.49
2023-01-27T01:44:27.299Z,-1.68
2023-01-27T01:45:48.906Z,-1.68
2023-01-27T01:46:45.533Z,-1.51
2023-01-27T01:47:42.137Z,-1.62
2023-01-27T01:48:43.191Z,-1.69
2023-01-27T01:49:40.979Z,-1.71
2023-01-27T01:50:40.830Z,-1.73
2023-01-27T01:51:41.980Z,-1.78
2023-01-27T01:52:38.576Z,-1.72
2023-01-27T01:53:42.013Z,-1.79
2023-01-27T01:54:48.423Z,-2.00
2023-01-27T01:55:46.640Z,-1.80
2023-01-27T01:57:04.568Z,-1.84
2023-01-27T01:58:02.619Z,-1.92
2023-01-27T01:59:05.274Z,-1.87
2023-01-27T02:00:07.901Z,-1.93
2023-01-27T02:01:05.809Z,-2.20
2023-01-27T02:02:07.705Z,-1.91
2023-01-27T02:03:04.684Z,-2.17
2023-01-27T02:04:04.739Z,-1.86
2023-01-27T02:05:06.817Z,-1.85
2023-01-27T02:06:05.031Z,-1.87
2023-01-27T02:07:13.501Z,-1.89
2023-01-27T02:08:27.529Z,-2.20
2023-01-27T02:09:24.717Z,-2.27
2023-01-27T02:10:21.402Z,-2.21
2023-01-27T02:11:18.637Z,-2.27
2023-01-27T02:12:15.360Z,-2.00
2023-01-27T02:13:12.342Z,-1.97
2023-01-27T02:14:11.180Z,-2.23
2023-01-27T02:15:10.123Z,-1.96
2023-01-27T02:16:08.356Z,-1.89
2023-01-27T02:17:05.781Z,-1.85
2023-01-27T02:18:03.545Z,-1.82
2023-01-27T02:19:00.137Z,-1.89
2023-01-27T02:20:14.757Z,-1.84
2023-01-27T02:21:11.521Z,-1.80
2023-01-27T02:22:13.861Z,-1.86
2023-01-27T02:23:27.907Z,-1.83
2023-01-27T02:24:32.599Z,-1.75
2023-01-27T02:25:35.059Z,-1.81
2023-01-27T02:26:33.657Z,-1.86
2023-01-27T02:27:30.306Z,-1.82
2023-01-27T02:28:29.246Z,-1.78
2023-01-27T02:29:25.908Z,-1.77
2023-01-27T02:30:22.669Z,-1.76
2023-01-27T02:31:19.443Z,-1.77
2023-01-27T02:32:26.499Z,-1.74
2023-01-27T02:33:23.678Z,-1.98
2023-01-27T02:34:24.837Z,-1.93
2023-01-27T02:35:42.271Z,-1.73
2023-01-27T02:36:51.584Z,-1.88
2023-01-27T02:37:49.995Z,-1.92
2023-01-27T02:38:55.641Z,-2.25
2023-01-27T02:39:54.054Z,-2.07
2023-01-27T02:40:53.567Z,-2.00
2023-01-27T02:41:53.181Z,-2.05
2023-01-27T02:42:50.022Z,-2.08
2023-01-27T02:43:48.773Z,-2.02
2023-01-27T02:44:45.506Z,-1.99
2023-01-27T02:45:42.260Z,-2.06
2023-01-27T02:46:38.997Z,-1.87
2023-01-27T02:47:35.715Z,-1.88
2023-01-27T02:48:32.412Z,-2.13
2023-01-27T02:49:29.003Z,-2.08
2023-01-27T02:50:25.591Z,-1.84
2023-01-27T02:51:22.691Z,-1.82
2023-01-27T02:52:19.288Z,-1.90
2023-01-27T02:53:15.886Z,-1.88
2023-01-27T02:54:12.724Z,-1.90
2023-01-27T02:55:10.010Z,-1.85
2023-01-27T02:56:07.232Z,-2.04
2023-01-27T02:57:03.901Z,-1.76
2023-01-27T02:58:00.494Z,-1.78
2023-01-27T02:58:57.128Z,-1.72
2023-01-27T02:59:53.754Z,-1.82
2023-01-27T03:00:50.360Z,-2.03
2023-01-27T03:01:47.035Z,-1.86
2023-01-27T03:02:43.923Z,-2.17
2023-01-27T03:03:49.416Z,-1.93
2023-01-27T03:04:46.102Z,-1.90
2023-01-27T03:05:42.812Z,-1.86
2023-01-27T03:06:39.603Z,-2.14
2023-01-27T03:07:36.211Z,-1.87
2023-01-27T03:08:32.902Z,-1.86
2023-01-27T03:09:29.451Z,-1.99
2023-01-27T03:10:26.134Z,-1.80
2023-01-27T03:11:41.250Z,-2.24
2023-01-27T03:12:37.839Z,-1.89
2023-01-27T03:13:34.626Z,-1.97
2023-01-27T03:14:49.562Z,-1.92
2023-01-27T03:16:04.799Z,-2.09
2023-01-27T03:17:19.559Z,-1.94
2023-01-27T03:18:16.327Z,-1.55
2023-01-27T03:19:12.920Z,-1.75
2023-01-27T03:20:10.331Z,-1.77
2023-01-27T03:21:07.497Z,-1.78
2023-01-27T03:22:04.124Z,-1.86
2023-01-27T03:23:00.840Z,-1.90
2023-01-27T03:23:57.932Z,-1.97
2023-01-27T03:24:54.558Z,-1.95
2023-01-27T03:25:51.179Z,-1.94
2023-01-27T03:26:47.981Z,-1.92
2023-01-27T03:27:44.960Z,-1.90
2023-01-27T03:28:41.651Z,-2.03
2023-01-27T03:29:56.072Z,-1.82
2023-01-27T03:30:58.585Z,-2.02
2023-01-27T03:31:55.356Z,-1.99
2023-01-27T03:32:52.214Z,-2.20
2023-01-27T03:33:48.911Z,-1.97
2023-01-27T03:34:45.638Z,-1.96
2023-01-27T03:35:48.357Z,-1.99
2023-01-27T03:37:03.527Z,-2.05
2023-01-27T03:38:20.380Z,-2.00
2023-01-27T03:39:35.366Z,-2.12
2023-01-27T03:40:50.371Z,-2.24
2023-01-27T03:42:05.336Z,-2.11
2023-01-27T03:43:21.196Z,-2.18
2023-01-27T03:44:36.247Z,-2.20
2023-01-27T03:45:51.346Z,-2.39
2023-01-27T03:46:48.837Z,-2.35
2023-01-27T03:47:45.555Z,-2.35
2023-01-27T03:48:42.542Z,-2.31
2023-01-27T03:49:39.269Z,-2.21
2023-01-27T03:50:43.877Z,-2.18
2023-01-27T03:51:40.793Z,-2.12
2023-01-27T03:52:37.943Z,-2.19
2023-01-27T03:53:35.679Z,-2.23
2023-01-27T03:54:32.423Z,-2.19
2023-01-27T03:55:33.594Z,-2.15
2023-01-27T03:56:30.259Z,-2.09
2023-01-27T03:57:26.918Z,-1.99
2023-01-27T03:58:31.878Z,-1.91
2023-01-27T03:59:28.567Z,-1.90
2023-01-27T04:00:25.211Z,-1.80
2023-01-27T04:01:24.105Z,-1.78
2023-01-27T04:02:39.413Z,-1.69
2023-01-27T04:03:54.987Z,-1.70
2023-01-27T04:05:09.858Z,-2.06
2023-01-27T04:06:28.727Z,-1.73
2023-01-27T04:07:25.349Z,-1.73
2023-01-27T04:08:22.135Z,-1.76
2023-01-27T04:09:25.231Z,-2.32
2023-01-27T04:10:21.805Z,-1.89
2023-01-27T04:11:36.955Z,-2.12
2023-01-27T04:12:33.630Z,-1.84
2023-01-27T04:13:30.248Z,-1.87
2023-01-27T04:14:38.281Z,-1.84
2023-01-27T04:15:34.877Z,-1.87
2023-01-27T04:16:32.126Z,-1.78
2023-01-27T04:17:30.753Z,-1.78
2023-01-27T04:18:27.366Z,-1.72
2023-01-27T04:19:25.892Z,-1.63
2023-01-27T04:20:23.610Z,-2.36
2023-01-27T04:21:20.243Z,-1.80
2023-01-27T04:22:17.141Z,-1.69
2023-01-27T04:23:13.730Z,-1.74
2023-01-27T04:24:22.724Z,-1.74
2023-01-27T04:25:19.622Z,-1.69
2023-01-27T04:26:16.309Z,-1.64
2023-01-27T04:27:15.670Z,-1.76
2023-01-27T04:28:12.310Z,-1.85
2023-01-27T04:29:08.931Z,-1.77
2023-01-27T04:30:06.121Z,-1.79
2023-01-27T04:31:02.729Z,-1.73
2023-01-27T04:31:59.337Z,-1.85
2023-01-27T04:32:55.928Z,-1.91
2023-01-27T04:33:52.911Z,-1.99
2023-01-27T04:34:49.528Z,-2.11
2023-01-27T04:35:46.624Z,-2.03
2023-01-27T04:36:43.709Z,-1.80
2023-01-27T04:37:40.328Z,-1.72
2023-01-27T04:38:36.995Z,-1.81
2023-01-27T04:39:34.788Z,-1.74
2023-01-27T04:40:31.386Z,-2.01
2023-01-27T04:41:28.348Z,-1.86
2023-01-27T04:42:24.928Z,-1.80
2023-01-27T04:43:21.768Z,-1.87
2023-01-27T04:44:22.031Z,-1.89
2023-01-27T04:45:18.646Z,-1.98
2023-01-27T04:46:15.290Z,-1.66
2023-01-27T04:47:11.847Z,-1.79
2023-01-27T04:48:08.472Z,-1.63
2023-01-27T04:49:06.353Z,-1.42
2023-01-27T04:50:03.040Z,-1.51
2023-01-27T04:50:59.591Z,-1.58
2023-01-27T04:51:56.339Z,-1.57
2023-01-27T04:52:52.988Z,-1.49
2023-01-27T04:53:49.764Z,-1.64
2023-01-27T04:54:46.340Z,-1.56
2023-01-27T04:55:47.359Z,-1.76
2023-01-27T04:56:56.837Z,-1.85
2023-01-27T04:57:53.752Z,-1.94
2023-01-27T04:58:50.468Z,-2.22
2023-01-27T04:59:47.047Z,-2.25
2023-01-27T05:00:45.121Z,-2.30
2023-01-27T05:01:41.890Z,-2.54
2023-01-27T05:02:38.506Z,-2.36
2023-01-27T05:03:35.155Z,-2.31
2023-01-27T05:04:32.479Z,-2.32
2023-01-27T05:05:29.137Z,-2.36
2023-01-27T05:06:26.924Z,-2.32
2023-01-27T05:07:23.742Z,-2.35
2023-01-27T05:08:20.664Z,-2.39
2023-01-27T05:09:17.261Z,-2.16
2023-01-27T05:10:13.874Z,-2.29
2023-01-27T05:11:11.711Z,-2.22
2023-01-27T05:12:08.536Z,-2.15
2023-01-27T05:13:05.121Z,-2.19
2023-01-27T05:14:01.751Z,-2.16
2023-01-27T05:14:59.902Z,-2.14
2023-01-27T05:16:09.977Z,-2.08
2023-01-27T05:17:06.607Z,-1.97
2023-01-27T05:18:03.339Z,-2.08
2023-01-27T05:18:59.994Z,-2.14
2023-01-27T05:19:56.522Z,-2.02
2023-01-27T05:20:53.178Z,-1.99
2023-01-27T05:21:49.829Z,-1.94
2023-01-27T05:22:46.528Z,-1.96
2023-01-27T05:23:43.714Z,-2.08
2023-01-27T05:24:40.319Z,-2.08
2023-01-27T05:25:36.951Z,-1.98
2023-01-27T05:26:33.582Z,-1.93
2023-01-27T05:27:30.156Z,-1.87
2023-01-27T05:28:28.291Z,-1.85
2023-01-27T05:29:25.041Z,-1.83
2023-01-27T05:30:21.663Z,-1.86
2023-01-27T05:31:24.241Z,-1.82
2023-01-27T05:32:20.893Z,-1.65
2023-01-27T05:33:17.492Z,-1.58
2023-01-27T05:34:14.325Z,-1.55
2023-01-27T05:35:11.299Z,-1.58
2023-01-27T05:36:11.371Z,-1.60
2023-01-27T05:37:07.942Z,-1.54
2023-01-27T05:38:04.612Z,-1.58
2023-01-27T05:39:01.365Z,-1.65
2023-01-27T05:39:59.481Z,-1.83
2023-01-27T05:41:02.108Z,-1.87
2023-01-27T05:41:58.892Z,-1.70
2023-01-27T05:42:55.518Z,-1.66
2023-01-27T05:43:54.257Z,-1.70
2023-01-27T05:44:50.782Z,-1.74
2023-01-27T05:45:47.364Z,-1.61
2023-01-27T05:46:44.066Z,-1.74
2023-01-27T05:47:40.665Z,-1.87
2023-01-27T05:48:39.609Z,-1.84
2023-01-27T05:49:36.244Z,-1.78
2023-01-27T05:50:32.786Z,-1.83
2023-01-27T05:51:31.378Z,-1.80
2023-01-27T05:52:27.924Z,-1.73
2023-01-27T05:53:24.942Z,-1.71
2023-01-27T05:54:21.516Z,-1.69
2023-01-27T05:55:18.066Z,-1.67
2023-01-27T05:56:18.135Z,-1.63
2023-01-27T05:57:14.750Z,-1.68
2023-01-27T05:58:11.355Z,-1.76
2023-01-27T05:59:08.509Z,-1.71
2023-01-27T06:00:05.829Z,-1.70
2023-01-27T06:01:35.388Z,-1.76
2023-01-27T06:02:32.616Z,-1.74
2023-01-27T06:03:29.249Z,-1.75
2023-01-27T06:04:26.262Z,-1.77
2023-01-27T06:05:22.844Z,-1.87
2023-01-27T06:06:21.489Z,-2.16
2023-01-27T06:07:18.254Z,-1.70
2023-01-27T06:08:14.795Z,-1.68
2023-01-27T06:09:11.532Z,-1.96
2023-01-27T06:10:08.784Z,-1.72
2023-01-27T06:11:06.850Z,-1.90
2023-01-27T06:12:03.481Z,-1.68
2023-01-27T06:13:00.808Z,-1.70
2023-01-27T06:13:59.858Z,-1.73
2023-01-27T06:14:59.555Z,-1.71
2023-01-27T06:15:56.228Z,-1.63
2023-01-27T06:16:53.709Z,-1.57
2023-01-27T06:17:52.741Z,-1.70
2023-01-27T06:18:49.571Z,-1.43
2023-01-27T06:19:46.104Z,-1.51
2023-01-27T06:20:43.022Z,-1.57
2023-01-27T06:21:39.650Z,-1.70
2023-01-27T06:22:36.328Z,-1.70
2023-01-27T06:23:33.136Z,-1.67
2023-01-27T06:24:29.846Z,-1.62
2023-01-27T06:25:26.429Z,-1.59
2023-01-27T06:26:22.998Z,-1.59
2023-01-27T06:27:19.573Z,-1.52
2023-01-27T06:28:28.887Z,-1.56
2023-01-27T06:29:26.214Z,-1.55
2023-01-27T06:30:23.432Z,-1.56
2023-01-27T06:31:22.180Z,-1.86
2023-01-27T06:32:18.939Z,-1.51
2023-01-27T06:33:15.532Z,-1.48
2023-01-27T06:34:12.510Z,-1.50
2023-01-27T06:35:09.298Z,-1.51
2023-01-27T06:36:09.333Z,-1.49
2023-01-27T06:37:05.928Z,-1.50
2023-01-27T06:38:04.530Z,-1.53
2023-01-27T06:39:01.114Z,-1.55
2023-01-27T06:39:57.754Z,-1.65
2023-01-27T06:40:54.338Z,-1.58
2023-01-27T06:41:50.970Z,-1.48
2023-01-27T06:42:47.656Z,-1.48
2023-01-27T06:43:44.317Z,-1.44
2023-01-27T06:44:40.918Z,-1.48
2023-01-27T06:45:37.498Z,-1.44
2023-01-27T06:46:34.324Z,-1.38
2023-01-27T06:47:30.932Z,-1.35
2023-01-27T06:48:28.145Z,-1.39
2023-01-27T06:49:24.923Z,-1.23
2023-01-27T06:50:21.758Z,-1.01
2023-01-27T06:51:18.312Z,-1.28
2023-01-27T06:52:14.880Z,-1.35
2023-01-27T06:53:11.881Z,-1.60
2023-01-27T06:54:08.443Z,-1.39
2023-01-27T06:55:05.701Z,-1.41
2023-01-27T06:56:02.561Z,-1.44
2023-01-27T06:56:59.143Z,-1.45
2023-01-27T06:57:55.832Z,-1.40
2023-01-27T06:58:52.450Z,-1.35
2023-01-27T06:59:49.013Z,-1.30
2023-01-27T07:00:45.711Z,-1.50
2023-01-27T07:01:42.454Z,-1.47
2023-01-27T07:02:39.146Z,-1.44
2023-01-27T07:03:35.916Z,-1.41
2023-01-27T07:04:32.562Z,-1.39
2023-01-27T07:05:29.325Z,-1.27
2023-01-27T07:06:26.052Z,-1.31
2023-01-27T07:07:22.648Z,-1.51
2023-01-27T07:08:19.214Z,-1.55
2023-01-27T07:09:15.759Z,-1.47
2023-01-27T07:10:12.640Z,-1.43
2023-01-27T07:11:09.432Z,-1.29
2023-01-27T07:12:06.095Z,-1.26
2023-01-27T07:13:10.710Z,-1.23
2023-01-27T07:14:09.639Z,-1.38
2023-01-27T07:15:09.426Z,-1.56
2023-01-27T07:16:06.516Z,-1.34
2023-01-27T07:17:03.316Z,-1.24
2023-01-27T07:18:01.251Z,-1.19
2023-01-27T07:18:57.815Z,-1.19
2023-01-27T07:19:54.415Z,-1.08
2023-01-27T07:20:52.148Z,-1.15
2023-01-27T07:21:48.692Z,-1.04
2023-01-27T07:22:45.250Z,-0.96
2023-01-27T07:23:41.822Z,-1.00
2023-01-27T07:24:38.714Z,-0.92
2023-01-27T07:25:35.577Z,-1.47
2023-01-27T07:26:32.200Z,-0.87
2023-01-27T07:27:29.651Z,-0.77
2023-01-27T07:28:26.273Z,-0.72
2023-01-27T07:29:22.984Z,-0.70
2023-01-27T07:30:19.745Z,-0.65
2023-01-27T07:31:16.448Z,-0.69
2023-01-27T07:32:13.331Z,-0.59
2023-01-27T07:33:11.894Z,-0.59
2023-01-27T07:34:08.588Z,-0.77
2023-01-27T07:35:05.618Z,-0.93
2023-01-27T07:36:02.245Z,-0.84
2023-01-27T07:37:00.032Z,-0.72
2023-01-27T07:37:58.234Z,-0.50
2023-01-27T07:38:54.776Z,-0.77
2023-01-27T07:39:51.391Z,-0.57
2023-01-27T07:40:48.003Z,-0.66
2023-01-27T07:41:44.546Z,-0.65
2023-01-27T07:42:41.661Z,-0.74
2023-01-27T07:43:38.323Z,-0.63
2023-01-27T07:44:34.868Z,-0.65
2023-01-27T07:45:31.785Z,-0.46
2023-01-27T07:46:28.342Z,-0.33
2023-01-27T07:47:24.985Z,-0.39
2023-01-27T07:48:21.647Z,-0.61
2023-01-27T07:49:18.341Z,-0.44
2023-01-27T07:50:15.350Z,-0.41
2023-01-27T07:51:13.942Z,-0.29
2023-01-27T07:52:10.635Z,-0.38
2023-01-27T07:53:07.438Z,-0.33
2023-01-27T07:54:05.125Z,-0.39
2023-01-27T07:55:01.758Z,-0.43
2023-01-27T07:56:01.449Z,-0.77
2023-01-27T07:57:01.650Z,-0.65
2023-01-27T07:57:58.275Z,-0.84
2023-01-27T07:58:55.800Z,-0.73
2023-01-27T07:59:55.739Z,-0.55
2023-01-27T08:00:52.484Z,-0.56
2023-01-27T08:01:49.098Z,-0.82
2023-01-27T08:02:51.153Z,-0.85
2023-01-27T08:03:47.757Z,-0.89
2023-01-27T08:04:52.961Z,-0.73
2023-01-27T08:05:50.949Z,-0.72
2023-01-27T08:06:47.647Z,-0.63
2023-01-27T08:07:45.514Z,-0.62
2023-01-27T08:08:42.252Z,-0.51
2023-01-27T08:09:38.837Z,-0.46
2023-01-27T08:10:35.483Z,-0.48
2023-01-27T08:11:32.280Z,-0.50
2023-01-27T08:12:28.857Z,-0.50
2023-01-27T08:13:25.520Z,-0.26
2023-01-27T08:14:22.113Z,-0.14
2023-01-27T08:15:19.316Z,-0.24
2023-01-27T08:16:16.595Z,-0.30
2023-01-27T08:17:13.247Z,-0.23
2023-01-27T08:18:10.610Z,-0.03
2023-01-27T08:19:07.260Z,-0.23
2023-01-27T08:20:04.652Z,-0.29
2023-01-27T08:21:03.922Z,-0.36
2023-01-27T08:22:00.478Z,-0.36
2023-01-27T08:22:59.182Z,-0.29
2023-01-27T08:23:55.852Z,-0.24
2023-01-27T08:24:52.524Z,-0.32
2023-01-27T08:25:53.871Z,-0.05
2023-01-27T08:26:50.500Z,-0.20
2023-01-27T08:27:51.034Z,-0.15
2023-01-27T08:28:47.719Z,0.03
2023-01-27T08:29:44.361Z,-0.57
2023-01-27T08:30:41.037Z,-0.23
2023-01-27T08:31:37.932Z,-0.39
2023-01-27T08:32:35.141Z,-0.26
2023-01-27T08:33:32.389Z,-0.47
2023-01-27T08:34:28.989Z,-0.35
2023-01-27T08:35:25.567Z,-0.24
2023-01-27T08:36:23.430Z,-0.31
2023-01-27T08:37:20.116Z,-0.44
2023-01-27T08:38:18.841Z,-0.97
2023-01-27T08:39:15.817Z,-0.43
2023-01-27T08:40:13.179Z,-0.28
2023-01-27T08:41:13.194Z,-0.20
2023-01-27T08:42:09.765Z,0.10
2023-01-27T08:43:07.421Z,0.03
2023-01-27T08:44:04.173Z,-0.10
2023-01-27T08:45:00.701Z,-0.19
2023-01-27T08:45:58.137Z,-0.30
2023-01-27T08:46:55.567Z,-0.52
2023-01-27T08:47:52.116Z,-0.21
2023-01-27T08:48:50.327Z,-0.16
2023-01-27T08:49:48.011Z,-0.15
2023-01-27T08:50:44.564Z,-0.31
2023-01-27T08:51:42.436Z,-0.46
2023-01-27T08:52:39.307Z,-0.43
2023-01-27T08:53:37.081Z,-0.38
2023-01-27T08:54:33.661Z,-0.34
2023-01-27T08:55:32.331Z,-0.30
2023-01-27T08:56:30.741Z,-0.34
2023-01-27T08:57:27.437Z,-0.32
2023-01-27T08:58:24.839Z,-0.58
2023-01-27T08:59:21.517Z,-0.41
2023-01-27T09:00:18.590Z,-0.36
2023-01-27T09:01:16.127Z,-0.63
2023-01-27T09:02:13.482Z,-0.68
2023-01-27T09:03:10.145Z,-0.33
2023-01-27T09:04:06.726Z,-0.42
2023-01-27T09:05:03.686Z,-0.28
2023-01-27T09:06:00.897Z,-0.27
2023-01-27T09:06:57.845Z,-0.28
2023-01-27T09:07:54.769Z,-0.24
2023-01-27T09:09:11.695Z,-0.42
2023-01-27T09:10:16.574Z,-0.28
2023-01-27T09:11:17.814Z,-0.24
2023-01-27T09:12:14.851Z,-0.13
2023-01-27T09:13:11.634Z,-0.17
2023-01-27T09:14:08.709Z,-0.18
2023-01-27T09:15:05.726Z,-0.26
2023-01-27T09:16:02.890Z,-0.28
2023-01-27T09:16:59.689Z,-0.02
2023-01-27T09:17:58.403Z,-0.13
2023-01-27T09:18:55.371Z,-0.31
2023-01-27T09:19:52.038Z,-0.35
2023-01-27T09:20:48.680Z,-0.17
2023-01-27T09:21:45.304Z,-0.17
2023-01-27T09:22:42.325Z,-0.19
2023-01-27T09:23:38.999Z,-0.24
2023-01-27T09:24:35.605Z,-0.17
2023-01-27T09:25:32.422Z,-0.01
2023-01-27T09:26:28.976Z,0.03
2023-01-27T09:27:38.127Z,-0.05
2023-01-27T09:28:35.576Z,0.01
2023-01-27T09:29:32.208Z,0.10
2023-01-27T09:30:29.356Z,-0.18
2023-01-27T09:31:26.047Z,-0.15
2023-01-27T09:32:22.751Z,-0.03
2023-01-27T09:33:19.497Z,0.07
2023-01-27T09:34:17.887Z,0.09
2023-01-27T09:35:14.928Z,-0.02
2023-01-27T09:36:15.683Z,-0.13
2023-01-27T09:37:13.630Z,-0.01
2023-01-27T09:38:12.200Z,-0.13
2023-01-27T09:39:09.220Z,-0.67
2023-01-27T09:40:28.821Z,-0.24
2023-01-27T09:41:37.605Z,-0.18
2023-01-27T09:42:40.226Z,-0.12
2023-01-27T09:44:06.046Z,-0.21
2023-01-27T09:45:26.112Z,-0.15
2023-01-27T09:47:00.143Z,-0.22
2023-01-27T09:48:23.276Z,0.00
2023-01-27T09:49:32.593Z,-0.40
2023-01-27T09:50:57.837Z,-0.18
2023-01-27T09:52:47.501Z,-0.21
2023-01-27T09:54:03.226Z,0.05
2023-01-27T09:55:05.624Z,0.04
2023-01-27T09:56:09.183Z,0.05
2023-01-27T09:57:25.318Z,0.23
2023-01-27T09:58:40.554Z,0.20
2023-01-27T09:59:49.282Z,0.17
2023-01-27T10:00:59.815Z,0.17
2023-01-27T10:02:12.474Z,0.18
2023-01-27T10:03:26.910Z,0.12
2023-01-27T10:04:42.516Z,-0.04
2023-01-27T10:05:48.081Z,-0.01
2023-01-27T10:07:26.752Z,0.00
2023-01-27T10:08:38.655Z,-0.08
2023-01-27T10:09:41.187Z,-0.17
2023-01-27T10:10:40.530Z,-0.19
2023-01-27T10:11:56.831Z,-0.36
2023-01-27T10:13:07.064Z,-0.26
2023-01-27T10:14:34.887Z,-0.35
2023-01-27T10:16:03.269Z,-0.13
2023-01-27T10:17:12.105Z,-0.02
2023-01-27T10:18:29.008Z,-0.12
2023-01-27T10:19:40.172Z,-0.44
2023-01-27T10:20:46.253Z,-0.25
2023-01-27T10:21:42.862Z,0.04
2023-01-27T10:22:45.377Z,0.18
2023-01-27T10:23:52.122Z,-0.07
2023-01-27T10:25:18.003Z,-0.17
2023-01-27T10:26:31.712Z,-0.13
2023-01-27T10:27:37.064Z,-0.40
2023-01-27T10:28:34.615Z,-0.18
2023-01-27T10:29:45.561Z,-0.25
2023-01-27T10:30:58.885Z,-0.12
2023-01-27T10:32:20.436Z,-0.14
2023-01-27T10:33:19.860Z,-0.09
2023-01-27T10:34:22.485Z,-0.21
2023-01-27T10:35:30.909Z,-0.37
2023-01-27T10:36:52.405Z,-0.16
2023-01-27T10:38:14.505Z,-0.18
2023-01-27T10:39:31.707Z,-0.19
2023-01-27T10:40:28.406Z,-0.12
2023-01-27T10:41:44.913Z,-0.22
2023-01-27T10:43:08.439Z,-0.06
2023-01-27T10:44:04.995Z,-0.13
2023-01-27T10:45:42.716Z,0.02
2023-01-27T10:46:48.417Z,-0.24
2023-01-27T10:47:47.774Z,0.08
2023-01-27T10:48:44.324Z,0.25
2023-01-27T10:49:47.140Z,0.24
2023-01-27T10:50:50.276Z,0.19
2023-01-27T10:51:53.371Z,0.14
2023-01-27T10:52:55.823Z,0.13
2023-01-27T10:54:09.305Z,-0.02
2023-01-27T10:55:22.611Z,-0.40
2023-01-27T10:56:47.976Z,-0.24
2023-01-27T10:58:01.906Z,-0.03
2023-01-27T10:59:35.533Z,-0.06
2023-01-27T11:01:09.093Z,-0.09
2023-01-27T11:02:13.551Z,-0.26
2023-01-27T11:03:15.524Z,-0.22
2023-01-27T11:04:24.018Z,-0.34
2023-01-27T11:05:28.731Z,-0.31
2023-01-27T11:06:30.829Z,-0.31
2023-01-27T11:07:27.708Z,-0.33
2023-01-27T11:08:36.727Z,-0.18
2023-01-27T11:09:49.275Z,-0.24
2023-01-27T11:11:08.630Z,-0.48
2023-01-27T11:12:12.715Z,-0.02
2023-01-27T11:13:14.748Z,-0.40
2023-01-27T11:14:31.102Z,0.04
2023-01-27T11:15:32.004Z,-0.24
2023-01-27T11:16:35.469Z,0.08
2023-01-27T11:17:45.015Z,-0.10
2023-01-27T11:18:43.335Z,0.14
2023-01-27T11:19:48.499Z,-0.05
2023-01-27T11:20:49.560Z,0.07
2023-01-27T11:21:50.747Z,0.09
2023-01-27T11:23:10.242Z,-0.02
2023-01-27T11:24:33.180Z,-0.95
2023-01-27T11:25:43.079Z,0.01
2023-01-27T11:26:43.594Z,0.16
2023-01-27T11:28:18.941Z,0.31
2023-01-27T11:29:42.492Z,0.36
2023-01-27T11:31:02.696Z,0.17
2023-01-27T11:32:23.172Z,0.34
2023-01-27T11:33:40.665Z,0.21
2023-01-27T11:35:12.393Z,0.44
2023-01-27T11:36:09.987Z,-0.05
2023-01-27T11:37:29.881Z,0.23
2023-01-27T11:38:26.538Z,0.18
2023-01-27T11:39:23.516Z,0.37
2023-01-27T11:40:27.939Z,0.42
2023-01-27T11:41:25.414Z,0.26
2023-01-27T11:42:22.949Z,0.44
2023-01-27T11:43:23.975Z,0.57
2023-01-27T11:44:34.048Z,0.04
2023-01-27T11:45:35.490Z,0.71
2023-01-27T11:46:35.135Z,0.89
2023-01-27T11:47:39.032Z,0.94
2023-01-27T11:48:43.695Z,0.60
2023-01-27T11:49:44.973Z,0.49
2023-01-27T11:50:42.977Z,0.18
2023-01-27T11:51:40.384Z,0.18
2023-01-27T11:52:37.084Z,0.60
2023-01-27T11:53:40.006Z,0.42
2023-01-27T11:55:08.433Z,0.42
2023-01-27T11:56:16.063Z,0.36
2023-01-27T11:57:23.862Z,0.34
2023-01-27T11:58:30.334Z,0.40
2023-01-27T11:59:35.276Z,0.15
2023-01-27T12:00:43.077Z,-0.22
2023-01-27T12:02:02.841Z,0.12
2023-01-27T12:03:19.978Z,-0.10
2023-01-27T12:04:31.726Z,-0.12
2023-01-27T12:05:34.132Z,0.00
2023-01-27T12:06:49.497Z,0.29
2023-01-27T12:08:01.938Z,0.08
2023-01-27T12:09:01.309Z,-0.21
2023-01-27T12:09:58.892Z,-0.11
2023-01-27T12:10:55.505Z,-0.20
2023-01-27T12:12:11.454Z,-0.12
2023-01-27T12:13:20.176Z,0.03
2023-01-27T12:14:16.776Z,-0.25
2023-01-27T12:15:16.707Z,-0.10
2023-01-27T12:16:13.963Z,0.10
2023-01-27T12:17:21.269Z,0.27
2023-01-27T12:18:17.971Z,0.03
2023-01-27T12:19:29.373Z,0.08
2023-01-27T12:20:34.410Z,0.09
2023-01-27T12:21:41.778Z,0.45
2023-01-27T12:22:40.623Z,0.22
2023-01-27T12:23:46.805Z,0.14
2023-01-27T12:24:49.958Z,-0.01
2023-01-27T12:25:53.325Z,0.03
2023-01-27T12:26:52.383Z,-0.10
2023-01-27T12:27:56.992Z,0.17
2023-01-27T12:28:54.350Z,-0.01
2023-01-27T12:29:55.626Z,-0.22
2023-01-27T12:30:55.920Z,0.16
2023-01-27T12:31:55.756Z,0.12
2023-01-27T12:32:54.199Z,-0.10
2023-01-27T12:33:58.416Z,0.20
2023-01-27T12:34:56.520Z,0.30
2023-01-27T12:35:59.934Z,0.15
2023-01-27T12:36:58.323Z,0.05
2023-01-27T12:38:05.091Z,0.30
2023-01-27T12:39:02.853Z,0.10
2023-01-27T12:40:03.621Z,0.24
2023-01-27T12:41:04.221Z,0.01
2023-01-27T12:42:00.908Z,0.16
2023-01-27T12:43:03.451Z,0.18
2023-01-27T12:44:16.188Z,0.08
2023-01-27T12:45:25.557Z,0.01
2023-01-27T12:46:27.761Z,-0.12
2023-01-27T12:47:26.620Z,0.22
2023-01-27T12:48:23.193Z,0.29
2023-01-27T12:49:20.920Z,0.38
2023-01-27T12:50:23.542Z,0.28
2023-01-27T12:51:22.189Z,0.39
2023-01-27T12:52:21.229Z,0.45
2023-01-27T12:53:20.244Z,0.79
2023-01-27T12:54:28.542Z,0.50
2023-01-27T12:55:36.146Z,0.75
2023-01-27T12:56:34.613Z,0.88
2023-01-27T12:57:33.081Z,0.73
2023-01-27T12:58:29.874Z,0.60
2023-01-27T12:59:27.218Z,0.56
2023-01-27T13:00:25.589Z,0.45
2023-01-27T13:01:30.356Z,0.48
2023-01-27T13:02:32.394Z,0.48
2023-01-27T13:03:29.909Z,0.45
2023-01-27T13:04:27.320Z,0.40
2023-01-27T13:05:24.691Z,0.55
2023-01-27T13:06:31.498Z,0.81
2023-01-27T13:07:42.949Z,0.98
2023-01-27T13:08:41.734Z,1.07
2023-01-27T13:10:02.944Z,1.23